sensor_id;sensor_type;location;lat;lon;timestamp;P1;durP1;ratioP1;P2;durP2;ratioP2
18399;SDS011;9326;49.468;11.008;2023-02-01T00:00:13;5.93;;;4.63;;
18399;SDS011;9326;49.468;11.008;2023-02-01T00:02:40;5.00;;;4.50;;
18399;SDS011;9326;49.468;11.008;2023-02-01T00:05:08;5.80;;;5.20;;
18399;SDS011;9326;49.468;11.008;2023-02-01T00:07:36;5.73;;;5.23;;
18399;SDS011;9326;49.468;11.008;2023-02-01T00:10:04;5.90;;;5.30;;
18399;SDS011;9326;49.468;11.008;2023-02-01T00:12:31;6.57;;;5.40;;
18399;SDS011;9326;49.468;11.008;2023-02-01T00:14:58;7.13;;;5.80;;
18399;SDS011;9326;49.468;11.008;2023-02-01T00:17:25;6.23;;;5.63;;
18399;SDS011;9326;49.468;11.008;2023-02-01T00:19:52;6.83;;;5.53;;
18399;SDS011;9326;49.468;11.008;2023-02-01T00:22:19;7.37;;;5.80;;
18399;SDS011;9326;49.468;11.008;2023-02-01T00:24:48;5.57;;;5.07;;
18399;SDS011;9326;49.468;11.008;2023-02-01T00:27:15;5.80;;;5.30;;
18399;SDS011;9326;49.468;11.008;2023-02-01T00:29:45;6.43;;;5.67;;
18399;SDS011;9326;49.468;11.008;2023-02-01T00:32:12;6.23;;;5.33;;
18399;SDS011;9326;49.468;11.008;2023-02-01T00:34:39;5.87;;;5.20;;
18399;SDS011;9326;49.468;11.008;2023-02-01T00:37:06;6.33;;;5.70;;
18399;SDS011;9326;49.468;11.008;2023-02-01T00:39:33;6.27;;;5.57;;
18399;SDS011;9326;49.468;11.008;2023-02-01T00:42:02;5.97;;;4.93;;
18399;SDS011;9326;49.468;11.008;2023-02-01T00:44:29;5.27;;;4.77;;
18399;SDS011;9326;49.468;11.008;2023-02-01T00:46:58;5.23;;;4.70;;
18399;SDS011;9326;49.468;11.008;2023-02-01T00:49:26;5.67;;;5.03;;
18399;SDS011;9326;49.468;11.008;2023-02-01T00:51:53;5.33;;;4.80;;
18399;SDS011;9326;49.468;11.008;2023-02-01T00:54:20;5.60;;;5.10;;
18399;SDS011;9326;49.468;11.008;2023-02-01T00:56:47;4.93;;;4.53;;
18399;SDS011;9326;49.468;11.008;2023-02-01T00:59:15;6.03;;;4.80;;
18399;SDS011;9326;49.468;11.008;2023-02-01T06:01:08;6.17;;;5.10;;
18399;SDS011;9326;49.468;11.008;2023-02-01T06:03:35;6.27;;;5.50;;
18399;SDS011;9326;49.468;11.008;2023-02-01T06:06:02;6.30;;;5.20;;
18399;SDS011;9326;49.468;11.008;2023-02-01T06:08:29;8.30;;;4.47;;
18399;SDS011;9326;49.468;11.008;2023-02-01T06:10:57;5.50;;;4.40;;
18399;SDS011;9326;49.468;11.008;2023-02-01T06:13:24;6.37;;;4.13;;
18399;SDS011;9326;49.468;11.008;2023-02-01T06:15:52;4.40;;;3.83;;
18399;SDS011;9326;49.468;11.008;2023-02-01T06:18:20;3.60;;;3.30;;
18399;SDS011;9326;49.468;11.008;2023-02-01T06:20:51;3.57;;;3.27;;
18399;SDS011;9326;49.468;11.008;2023-02-01T06:23:18;3.50;;;3.20;;
18399;SDS011;9326;49.468;11.008;2023-02-01T06:25:49;4.50;;;3.43;;
18399;SDS011;9326;49.468;11.008;2023-02-01T06:28:16;3.80;;;3.50;;
18399;SDS011;9326;49.468;11.008;2023-02-01T06:30:43;4.17;;;3.27;;
18399;SDS011;9326;49.468;11.008;2023-02-01T06:33:11;4.10;;;3.70;;
18399;SDS011;9326;49.468;11.008;2023-02-01T06:35:41;3.77;;;3.47;;
18399;SDS011;9326;49.468;11.008;2023-02-01T06:38:09;3.03;;;2.83;;
18399;SDS011;9326;49.468;11.008;2023-02-01T06:40:36;3.33;;;3.03;;
18399;SDS011;9326;49.468;11.008;2023-02-01T06:43:03;3.57;;;3.23;;
18399;SDS011;9326;49.468;11.008;2023-02-01T06:45:30;2.70;;;2.50;;
18399;SDS011;9326;49.468;11.008;2023-02-01T06:47:58;2.60;;;2.40;;
18399;SDS011;9326;49.468;11.008;2023-02-01T06:50:25;2.93;;;2.67;;
18399;SDS011;9326;49.468;11.008;2023-02-01T06:52:53;3.00;;;2.40;;
18399;SDS011;9326;49.468;11.008;2023-02-01T06:55:21;4.13;;;2.90;;
18399;SDS011;9326;49.468;11.008;2023-02-01T06:57:52;3.33;;;2.80;;
18399;SDS011;9326;49.468;11.008;2023-02-01T07:00:20;2.67;;;2.47;;
18399;SDS011;9326;49.468;11.008;2023-02-01T07:02:47;2.77;;;2.53;;
18399;SDS011;9326;49.468;11.008;2023-02-01T07:05:14;3.10;;;2.67;;
18399;SDS011;9326;49.468;11.008;2023-02-01T07:07:41;3.63;;;3.00;;
18399;SDS011;9326;49.468;11.008;2023-02-01T07:10:10;3.67;;;3.37;;
18399;SDS011;9326;49.468;11.008;2023-02-01T07:12:37;3.93;;;3.20;;
18399;SDS011;9326;49.468;11.008;2023-02-01T07:15:05;3.10;;;2.80;;
18399;SDS011;9326;49.468;11.008;2023-02-01T07:17:32;3.37;;;3.07;;
18399;SDS011;9326;49.468;11.008;2023-02-01T07:19:59;2.83;;;2.63;;
18399;SDS011;9326;49.468;11.008;2023-02-01T07:22:26;3.20;;;3.00;;
18399;SDS011;9326;49.468;11.008;2023-02-01T07:24:54;3.00;;;2.67;;
18399;SDS011;9326;49.468;11.008;2023-02-01T07:27:22;3.30;;;3.00;;
18399;SDS011;9326;49.468;11.008;2023-02-01T07:29:50;4.00;;;3.10;;
18399;SDS011;9326;49.468;11.008;2023-02-01T07:32:17;3.30;;;3.00;;
18399;SDS011;9326;49.468;11.008;2023-02-01T07:34:44;3.50;;;3.20;;
18399;SDS011;9326;49.468;11.008;2023-02-01T07:37:11;3.17;;;2.87;;
18399;SDS011;9326;49.468;11.008;2023-02-01T07:39:38;3.93;;;3.40;;
18399;SDS011;9326;49.468;11.008;2023-02-01T07:42:05;4.83;;;3.43;;
18399;SDS011;9326;49.468;11.008;2023-02-01T07:44:34;6.03;;;3.63;;
18399;SDS011;9326;49.468;11.008;2023-02-01T07:47:01;6.07;;;3.27;;
18399;SDS011;9326;49.468;11.008;2023-02-01T07:49:28;5.50;;;3.27;;
18399;SDS011;9326;49.468;11.008;2023-02-01T07:51:55;3.90;;;3.27;;
18399;SDS011;9326;49.468;11.008;2023-02-01T07:54:22;4.17;;;3.23;;
18399;SDS011;9326;49.468;11.008;2023-02-01T07:56:49;5.17;;;2.90;;
18399;SDS011;9326;49.468;11.008;2023-02-01T07:59:16;3.87;;;2.90;;
18399;SDS011;9326;49.468;11.008;2023-02-01T08:01:44;7.67;;;3.43;;
18399;SDS011;9326;49.468;11.008;2023-02-01T08:04:11;4.87;;;3.00;;
18399;SDS011;9326;49.468;11.008;2023-02-01T08:06:38;6.17;;;2.67;;
18399;SDS011;9326;49.468;11.008;2023-02-01T08:09:06;4.67;;;2.90;;
18399;SDS011;9326;49.468;11.008;2023-02-01T08:11:33;6.80;;;3.00;;
18399;SDS011;9326;49.468;11.008;2023-02-01T08:14:02;6.50;;;3.40;;
18399;SDS011;9326;49.468;11.008;2023-02-01T08:16:29;5.30;;;3.33;;
18399;SDS011;9326;49.468;11.008;2023-02-01T08:18:58;5.10;;;2.87;;
18399;SDS011;9326;49.468;11.008;2023-02-01T08:21:26;5.17;;;2.70;;
18399;SDS011;9326;49.468;11.008;2023-02-01T08:24:01;6.47;;;3.00;;
18399;SDS011;9326;49.468;11.008;2023-02-01T08:26:28;4.63;;;2.07;;
18399;SDS011;9326;49.468;11.008;2023-02-01T08:28:56;5.50;;;2.70;;
18399;SDS011;9326;49.468;11.008;2023-02-01T08:31:25;5.70;;;2.50;;
18399;SDS011;9326;49.468;11.008;2023-02-01T08:33:53;5.27;;;2.53;;
18399;SDS011;9326;49.468;11.008;2023-02-01T08:36:21;3.37;;;2.50;;
18399;SDS011;9326;49.468;11.008;2023-02-01T08:38:49;6.43;;;2.83;;
18399;SDS011;9326;49.468;11.008;2023-02-01T08:41:17;5.27;;;2.50;;
18399;SDS011;9326;49.468;11.008;2023-02-01T08:43:45;6.17;;;2.90;;
18399;SDS011;9326;49.468;11.008;2023-02-01T08:46:12;4.07;;;2.47;;
18399;SDS011;9326;49.468;11.008;2023-02-01T08:48:39;5.23;;;2.87;;
18399;SDS011;9326;49.468;11.008;2023-02-01T08:51:07;7.40;;;2.70;;
18399;SDS011;9326;49.468;11.008;2023-02-01T08:53:36;5.47;;;2.83;;
18399;SDS011;9326;49.468;11.008;2023-02-01T08:56:05;3.60;;;2.73;;
18399;SDS011;9326;49.468;11.008;2023-02-01T08:58:32;2.97;;;2.57;;
18399;SDS011;9326;49.468;11.008;2023-02-01T09:01:02;5.90;;;2.80;;
18399;SDS011;9326;49.468;11.008;2023-02-01T09:03:29;4.00;;;2.77;;
18399;SDS011;9326;49.468;11.008;2023-02-01T09:05:59;6.53;;;3.10;;
18399;SDS011;9326;49.468;11.008;2023-02-01T09:08:26;5.83;;;3.00;;
18399;SDS011;9326;49.468;11.008;2023-02-01T09:10:57;10.20;;;3.53;;
18399;SDS011;9326;49.468;11.008;2023-02-01T09:13:24;8.37;;;3.47;;
18399;SDS011;9326;49.468;11.008;2023-02-01T09:15:51;5.30;;;2.77;;
18399;SDS011;9326;49.468;11.008;2023-02-01T09:18:18;5.87;;;2.60;;
18399;SDS011;9326;49.468;11.008;2023-02-01T09:20:45;3.70;;;2.30;;
18399;SDS011;9326;49.468;11.008;2023-02-01T09:23:12;4.17;;;2.40;;
18399;SDS011;9326;49.468;11.008;2023-02-01T09:25:39;4.70;;;2.53;;
18399;SDS011;9326;49.468;11.008;2023-02-01T09:28:08;3.53;;;2.00;;
18399;SDS011;9326;49.468;11.008;2023-02-01T09:30:35;6.40;;;2.33;;
18399;SDS011;9326;49.468;11.008;2023-02-01T09:33:02;5.23;;;2.10;;
18399;SDS011;9326;49.468;11.008;2023-02-01T09:35:30;6.70;;;1.50;;
18399;SDS011;9326;49.468;11.008;2023-02-01T09:37:57;3.53;;;1.70;;
18399;SDS011;9326;49.468;11.008;2023-02-01T09:40:24;6.93;;;2.00;;
18399;SDS011;9326;49.468;11.008;2023-02-01T09:43:00;5.87;;;1.73;;
18399;SDS011;9326;49.468;11.008;2023-02-01T09:45:32;5.80;;;1.47;;
18399;SDS011;9326;49.468;11.008;2023-02-01T09:48:04;6.23;;;1.50;;
18399;SDS011;9326;49.468;11.008;2023-02-01T09:50:37;8.73;;;3.87;;
18399;SDS011;9326;49.468;11.008;2023-02-01T09:53:06;13.60;;;7.70;;
18399;SDS011;9326;49.468;11.008;2023-02-01T09:55:38;4.80;;;1.80;;
18399;SDS011;9326;49.468;11.008;2023-02-01T09:58:07;5.43;;;1.80;;
18399;SDS011;9326;49.468;11.008;2023-02-01T10:00:37;6.97;;;1.93;;
18399;SDS011;9326;49.468;11.008;2023-02-01T10:03:05;7.10;;;2.03;;
18399;SDS011;9326;49.468;11.008;2023-02-01T10:05:41;6.13;;;1.90;;
18399;SDS011;9326;49.468;11.008;2023-02-01T10:08:12;4.47;;;2.07;;
18399;SDS011;9326;49.468;11.008;2023-02-01T10:10:43;8.27;;;2.30;;
18399;SDS011;9326;49.468;11.008;2023-02-01T10:13:17;5.27;;;2.23;;
18399;SDS011;9326;49.468;11.008;2023-02-01T10:15:54;5.80;;;2.43;;
18399;SDS011;9326;49.468;11.008;2023-02-01T10:18:37;7.80;;;3.70;;
18399;SDS011;9326;49.468;11.008;2023-02-01T10:21:10;6.40;;;3.40;;
18399;SDS011;9326;49.468;11.008;2023-02-01T10:23:53;8.67;;;3.90;;
18399;SDS011;9326;49.468;11.008;2023-02-01T10:26:23;8.17;;;3.60;;
18399;SDS011;9326;49.468;11.008;2023-02-01T10:28:51;8.30;;;3.93;;
18399;SDS011;9326;49.468;11.008;2023-02-01T10:31:20;9.60;;;4.27;;
18399;SDS011;9326;49.468;11.008;2023-02-01T10:33:50;10.83;;;4.30;;
18399;SDS011;9326;49.468;11.008;2023-02-01T10:36:20;8.67;;;4.20;;
18399;SDS011;9326;49.468;11.008;2023-02-01T10:38:48;9.27;;;4.37;;
18399;SDS011;9326;49.468;11.008;2023-02-01T10:41:16;10.13;;;4.20;;
18399;SDS011;9326;49.468;11.008;2023-02-01T10:43:44;9.50;;;4.10;;
18399;SDS011;9326;49.468;11.008;2023-02-01T10:46:13;9.37;;;4.00;;
18399;SDS011;9326;49.468;11.008;2023-02-01T10:48:42;11.80;;;4.10;;
18399;SDS011;9326;49.468;11.008;2023-02-01T10:51:11;7.87;;;3.90;;
18399;SDS011;9326;49.468;11.008;2023-02-01T10:53:41;11.27;;;4.10;;
18399;SDS011;9326;49.468;11.008;2023-02-01T10:56:09;7.80;;;4.03;;
18399;SDS011;9326;49.468;11.008;2023-02-01T10:58:42;10.10;;;4.40;;
18399;SDS011;9326;49.468;11.008;2023-02-01T11:01:10;12.73;;;4.63;;
18399;SDS011;9326;49.468;11.008;2023-02-01T11:03:44;11.80;;;4.20;;
18399;SDS011;9326;49.468;11.008;2023-02-01T11:06:15;13.27;;;4.03;;
18399;SDS011;9326;49.468;11.008;2023-02-01T11:08:44;8.20;;;3.83;;
18399;SDS011;9326;49.468;11.008;2023-02-01T11:11:11;11.47;;;4.30;;
18399;SDS011;9326;49.468;11.008;2023-02-01T11:13:39;10.00;;;3.23;;
18399;SDS011;9326;49.468;11.008;2023-02-01T11:16:09;13.77;;;3.50;;
18399;SDS011;9326;49.468;11.008;2023-02-01T11:18:37;9.53;;;3.13;;
18399;SDS011;9326;49.468;11.008;2023-02-01T11:21:06;7.50;;;3.30;;
18399;SDS011;9326;49.468;11.008;2023-02-01T11:23:38;9.00;;;3.40;;
18399;SDS011;9326;49.468;11.008;2023-02-01T11:26:07;9.00;;;2.90;;
18399;SDS011;9326;49.468;11.008;2023-02-01T11:28:37;7.20;;;2.57;;
18399;SDS011;9326;49.468;11.008;2023-02-01T11:31:05;6.73;;;2.43;;
18399;SDS011;9326;49.468;11.008;2023-02-01T11:33:34;8.73;;;2.87;;
18399;SDS011;9326;49.468;11.008;2023-02-01T11:36:07;8.03;;;2.70;;
18399;SDS011;9326;49.468;11.008;2023-02-01T11:38:35;10.40;;;2.50;;
18399;SDS011;9326;49.468;11.008;2023-02-01T11:41:11;7.03;;;2.80;;
18399;SDS011;9326;49.468;11.008;2023-02-01T11:43:49;13.17;;;3.30;;
18399;SDS011;9326;49.468;11.008;2023-02-01T11:46:17;10.73;;;3.37;;
18399;SDS011;9326;49.468;11.008;2023-02-01T11:48:49;9.23;;;3.37;;
18399;SDS011;9326;49.468;11.008;2023-02-01T11:51:21;8.47;;;3.50;;
18399;SDS011;9326;49.468;11.008;2023-02-01T11:54:02;8.47;;;3.50;;
18399;SDS011;9326;49.468;11.008;2023-02-01T11:56:35;8.43;;;3.50;;
18399;SDS011;9326;49.468;11.008;2023-02-01T12:01:52;8.20;;;2.80;;
18399;SDS011;9326;49.468;11.008;2023-02-01T12:04:36;9.20;;;3.13;;
18399;SDS011;9326;49.468;11.008;2023-02-01T12:07:10;7.63;;;3.40;;
18399;SDS011;9326;49.468;11.008;2023-02-01T12:09:43;11.43;;;3.40;;
18399;SDS011;9326;49.468;11.008;2023-02-01T12:12:16;8.43;;;3.27;;
18399;SDS011;9326;49.468;11.008;2023-02-01T12:14:51;10.97;;;3.10;;
18399;SDS011;9326;49.468;11.008;2023-02-01T12:17:35;10.10;;;2.80;;
18399;SDS011;9326;49.468;11.008;2023-02-01T12:20:15;7.00;;;2.80;;
18399;SDS011;9326;49.468;11.008;2023-02-01T12:22:49;9.10;;;3.10;;
18399;SDS011;9326;49.468;11.008;2023-02-01T12:25:24;10.53;;;2.73;;
18399;SDS011;9326;49.468;11.008;2023-02-01T12:28:00;9.27;;;2.93;;
18399;SDS011;9326;49.468;11.008;2023-02-01T12:33:21;7.33;;;3.00;;
18399;SDS011;9326;49.468;11.008;2023-02-01T12:36:06;8.50;;;3.10;;
18399;SDS011;9326;49.468;11.008;2023-02-01T12:38:45;7.90;;;2.70;;
18399;SDS011;9326;49.468;11.008;2023-02-01T12:41:16;6.00;;;2.67;;
18399;SDS011;9326;49.468;11.008;2023-02-01T12:43:47;8.30;;;2.93;;
18399;SDS011;9326;49.468;11.008;2023-02-01T12:46:16;7.57;;;3.20;;
18399;SDS011;9326;49.468;11.008;2023-02-01T12:48:49;9.67;;;3.00;;
18399;SDS011;9326;49.468;11.008;2023-02-01T12:51:17;9.00;;;3.17;;
18399;SDS011;9326;49.468;11.008;2023-02-01T12:53:46;6.93;;;2.63;;
18399;SDS011;9326;49.468;11.008;2023-02-01T12:56:16;11.33;;;2.93;;
18399;SDS011;9326;49.468;11.008;2023-02-01T12:58:45;7.87;;;2.33;;
18399;SDS011;9326;49.468;11.008;2023-02-01T13:01:15;7.90;;;3.00;;
18399;SDS011;9326;49.468;11.008;2023-02-01T13:03:48;9.80;;;2.70;;
18399;SDS011;9326;49.468;11.008;2023-02-01T13:06:18;7.87;;;2.40;;
18399;SDS011;9326;49.468;11.008;2023-02-01T13:08:48;6.97;;;2.53;;
18399;SDS011;9326;49.468;11.008;2023-02-01T13:11:19;12.93;;;2.90;;
18399;SDS011;9326;49.468;11.008;2023-02-01T13:13:49;9.20;;;2.63;;
18399;SDS011;9326;49.468;11.008;2023-02-01T13:16:21;10.23;;;2.70;;
18399;SDS011;9326;49.468;11.008;2023-02-01T13:18:52;9.70;;;2.67;;
18399;SDS011;9326;49.468;11.008;2023-02-01T13:21:22;10.03;;;3.03;;
18399;SDS011;9326;49.468;11.008;2023-02-01T13:23:52;8.47;;;2.67;;
18399;SDS011;9326;49.468;11.008;2023-02-01T13:26:19;12.43;;;3.77;;
18399;SDS011;9326;49.468;11.008;2023-02-01T13:28:46;10.53;;;3.53;;
18399;SDS011;9326;49.468;11.008;2023-02-01T13:31:20;8.87;;;2.80;;
18399;SDS011;9326;49.468;11.008;2023-02-01T13:33:52;9.57;;;2.70;;
18399;SDS011;9326;49.468;11.008;2023-02-01T13:42:04;7.37;;;2.60;;
18399;SDS011;9326;49.468;11.008;2023-02-01T13:44:33;8.63;;;2.33;;
18399;SDS011;9326;49.468;11.008;2023-02-01T13:47:01;12.50;;;2.40;;
18399;SDS011;9326;49.468;11.008;2023-02-01T13:49:29;7.27;;;2.50;;
18399;SDS011;9326;49.468;11.008;2023-02-01T13:51:58;8.00;;;2.30;;
18399;SDS011;9326;49.468;11.008;2023-02-01T13:54:29;6.17;;;2.20;;
18399;SDS011;9326;49.468;11.008;2023-02-01T13:56:58;7.50;;;2.60;;
18399;SDS011;9326;49.468;11.008;2023-02-01T14:05:53;6.23;;;2.20;;
18399;SDS011;9326;49.468;11.008;2023-02-01T14:08:09;10.27;;;2.53;;
18399;SDS011;9326;49.468;11.008;2023-02-01T14:10:47;11.37;;;2.63;;
18399;SDS011;9326;49.468;11.008;2023-02-01T14:13:22;10.33;;;2.47;;
18399;SDS011;9326;49.468;11.008;2023-02-01T14:21:24;5.40;;;2.70;;
18399;SDS011;9326;49.468;11.008;2023-02-01T14:23:55;8.97;;;2.33;;
18399;SDS011;9326;49.468;11.008;2023-02-01T14:26:23;9.13;;;2.30;;
18399;SDS011;9326;49.468;11.008;2023-02-01T14:28:52;10.13;;;2.33;;
18399;SDS011;9326;49.468;11.008;2023-02-01T14:31:30;7.60;;;2.50;;
18399;SDS011;9326;49.468;11.008;2023-02-01T14:33:58;11.37;;;2.43;;
18399;SDS011;9326;49.468;11.008;2023-02-01T14:36:28;6.87;;;2.50;;
18399;SDS011;9326;49.468;11.008;2023-02-01T14:39:16;9.90;;;2.13;;
18399;SDS011;9326;49.468;11.008;2023-02-01T14:41:44;7.47;;;2.00;;
18399;SDS011;9326;49.468;11.008;2023-02-01T14:44:14;12.90;;;3.00;;
18399;SDS011;9326;49.468;11.008;2023-02-01T14:49:28;8.70;;;2.53;;
18399;SDS011;9326;49.468;11.008;2023-02-01T14:51:57;7.20;;;2.53;;
18399;SDS011;9326;49.468;11.008;2023-02-01T14:54:25;8.77;;;2.20;;
18399;SDS011;9326;49.468;11.008;2023-02-01T14:56:52;12.80;;;4.00;;
18399;SDS011;9326;49.468;11.008;2023-02-01T14:59:20;9.93;;;2.57;;
18399;SDS011;9326;49.468;11.008;2023-02-01T15:01:49;10.87;;;3.67;;
18399;SDS011;9326;49.468;11.008;2023-02-01T15:04:17;10.03;;;3.17;;
18399;SDS011;9326;49.468;11.008;2023-02-01T15:06:47;7.03;;;2.50;;
18399;SDS011;9326;49.468;11.008;2023-02-01T15:09:17;11.27;;;2.70;;
18399;SDS011;9326;49.468;11.008;2023-02-01T15:11:55;8.20;;;3.10;;
18399;SDS011;9326;49.468;11.008;2023-02-01T15:14:23;6.73;;;2.80;;
18399;SDS011;9326;49.468;11.008;2023-02-01T15:16:50;11.00;;;3.10;;
18399;SDS011;9326;49.468;11.008;2023-02-01T15:19:19;9.50;;;3.07;;
18399;SDS011;9326;49.468;11.008;2023-02-01T15:21:48;8.03;;;2.83;;
18399;SDS011;9326;49.468;11.008;2023-02-01T15:24:21;9.73;;;3.00;;
18399;SDS011;9326;49.468;11.008;2023-02-01T15:26:48;10.53;;;2.73;;
18399;SDS011;9326;49.468;11.008;2023-02-01T15:29:16;10.77;;;3.10;;
18399;SDS011;9326;49.468;11.008;2023-02-01T15:31:44;8.03;;;2.83;;
18399;SDS011;9326;49.468;11.008;2023-02-01T15:34:11;10.40;;;2.50;;
18399;SDS011;9326;49.468;11.008;2023-02-01T15:36:39;8.63;;;2.67;;
18399;SDS011;9326;49.468;11.008;2023-02-01T15:39:13;10.73;;;2.70;;
18399;SDS011;9326;49.468;11.008;2023-02-01T15:41:44;11.13;;;2.90;;
18399;SDS011;9326;49.468;11.008;2023-02-01T15:44:14;9.57;;;2.60;;
18399;SDS011;9326;49.468;11.008;2023-02-01T15:46:44;14.30;;;2.70;;
18399;SDS011;9326;49.468;11.008;2023-02-01T15:49:16;10.23;;;2.67;;
18399;SDS011;9326;49.468;11.008;2023-02-01T15:51:44;11.17;;;2.83;;
18399;SDS011;9326;49.468;11.008;2023-02-01T15:54:15;12.13;;;2.57;;
18399;SDS011;9326;49.468;11.008;2023-02-01T15:56:48;9.00;;;2.40;;
18399;SDS011;9326;49.468;11.008;2023-02-01T15:59:18;7.30;;;2.70;;
18399;SDS011;9326;49.468;11.008;2023-02-01T16:01:46;7.73;;;2.30;;
18399;SDS011;9326;49.468;11.008;2023-02-01T16:04:15;8.90;;;2.50;;
18399;SDS011;9326;49.468;11.008;2023-02-01T16:06:46;9.93;;;2.53;;
18399;SDS011;9326;49.468;11.008;2023-02-01T16:09:14;8.00;;;2.00;;
18399;SDS011;9326;49.468;11.008;2023-02-01T16:11:46;8.63;;;2.73;;
18399;SDS011;9326;49.468;11.008;2023-02-01T16:14:15;10.73;;;2.20;;
18399;SDS011;9326;49.468;11.008;2023-02-01T16:16:42;9.60;;;2.57;;
18399;SDS011;9326;49.468;11.008;2023-02-01T16:19:09;7.03;;;2.23;;
18399;SDS011;9326;49.468;11.008;2023-02-01T16:21:36;10.07;;;2.20;;
18399;SDS011;9326;49.468;11.008;2023-02-01T16:24:03;12.20;;;2.50;;
18399;SDS011;9326;49.468;11.008;2023-02-01T16:26:31;7.17;;;1.93;;
18399;SDS011;9326;49.468;11.008;2023-02-01T16:28:58;11.50;;;2.63;;
18399;SDS011;9326;49.468;11.008;2023-02-01T16:31:30;6.53;;;1.93;;
18399;SDS011;9326;49.468;11.008;2023-02-01T16:33:58;8.47;;;2.57;;
18399;SDS011;9326;49.468;11.008;2023-02-01T16:36:25;9.10;;;2.40;;
18399;SDS011;9326;49.468;11.008;2023-02-01T16:38:53;8.33;;;2.20;;
18399;SDS011;9326;49.468;11.008;2023-02-01T16:41:21;8.20;;;2.20;;
18399;SDS011;9326;49.468;11.008;2023-02-01T16:43:49;7.07;;;2.17;;
18399;SDS011;9326;49.468;11.008;2023-02-01T16:46:17;12.77;;;4.20;;
18399;SDS011;9326;49.468;11.008;2023-02-01T16:48:48;8.30;;;2.20;;
18399;SDS011;9326;49.468;11.008;2023-02-01T16:51:16;5.53;;;1.70;;
18399;SDS011;9326;49.468;11.008;2023-02-01T16:53:44;9.00;;;2.40;;
18399;SDS011;9326;49.468;11.008;2023-02-01T16:56:15;7.27;;;2.30;;
18399;SDS011;9326;49.468;11.008;2023-02-01T16:58:43;9.10;;;2.57;;
18399;SDS011;9326;49.468;11.008;2023-02-01T17:01:10;9.40;;;3.07;;
18399;SDS011;9326;49.468;11.008;2023-02-01T17:03:37;10.60;;;2.90;;
18399;SDS011;9326;49.468;11.008;2023-02-01T17:06:06;9.90;;;2.37;;
18399;SDS011;9326;49.468;11.008;2023-02-01T17:08:35;7.97;;;1.97;;
18399;SDS011;9326;49.468;11.008;2023-02-01T17:11:03;5.10;;;1.90;;
18399;SDS011;9326;49.468;11.008;2023-02-01T17:13:30;7.93;;;2.13;;
18399;SDS011;9326;49.468;11.008;2023-02-01T17:15:57;10.20;;;3.40;;
18399;SDS011;9326;49.468;11.008;2023-02-01T17:18:26;10.07;;;2.30;;
18399;SDS011;9326;49.468;11.008;2023-02-01T17:20:55;8.97;;;2.53;;
18399;SDS011;9326;49.468;11.008;2023-02-01T17:23:24;6.90;;;2.17;;
18399;SDS011;9326;49.468;11.008;2023-02-01T17:25:51;6.73;;;2.20;;
18399;SDS011;9326;49.468;11.008;2023-02-01T17:28:18;5.00;;;2.03;;
18399;SDS011;9326;49.468;11.008;2023-02-01T17:30:45;9.67;;;2.23;;
18399;SDS011;9326;49.468;11.008;2023-02-01T17:33:17;5.80;;;2.40;;
18399;SDS011;9326;49.468;11.008;2023-02-01T17:35:45;9.17;;;2.20;;
18399;SDS011;9326;49.468;11.008;2023-02-01T17:38:12;9.37;;;2.53;;
18399;SDS011;9326;49.468;11.008;2023-02-01T17:40:41;6.47;;;1.80;;
18399;SDS011;9326;49.468;11.008;2023-02-01T17:43:14;8.63;;;2.30;;
18399;SDS011;9326;49.468;11.008;2023-02-01T17:45:42;7.43;;;2.20;;
18399;SDS011;9326;49.468;11.008;2023-02-01T17:48:15;9.60;;;2.37;;
18399;SDS011;9326;49.468;11.008;2023-02-01T17:50:42;6.57;;;2.20;;
18399;SDS011;9326;49.468;11.008;2023-02-01T17:53:11;7.27;;;2.50;;
18399;SDS011;9326;49.468;11.008;2023-02-01T17:55:41;7.23;;;2.97;;
18399;SDS011;9326;49.468;11.008;2023-02-01T17:58:09;6.33;;;2.50;;
18399;SDS011;9326;49.468;11.008;2023-02-01T18:00:37;9.10;;;2.43;;
18399;SDS011;9326;49.468;11.008;2023-02-01T18:03:04;8.73;;;1.97;;
18399;SDS011;9326;49.468;11.008;2023-02-01T18:05:34;6.50;;;2.23;;
18399;SDS011;9326;49.468;11.008;2023-02-01T18:08:02;10.20;;;2.77;;
18399;SDS011;9326;49.468;11.008;2023-02-01T18:10:29;7.33;;;2.40;;
18399;SDS011;9326;49.468;11.008;2023-02-01T18:12:58;9.87;;;2.33;;
18399;SDS011;9326;49.468;11.008;2023-02-01T18:15:25;8.50;;;2.60;;
18399;SDS011;9326;49.468;11.008;2023-02-01T18:17:52;9.83;;;2.20;;
18399;SDS011;9326;49.468;11.008;2023-02-01T18:20:20;5.73;;;1.70;;
18399;SDS011;9326;49.468;11.008;2023-02-01T18:22:47;12.93;;;3.00;;
18399;SDS011;9326;49.468;11.008;2023-02-01T18:25:15;7.70;;;2.63;;
18399;SDS011;9326;49.468;11.008;2023-02-01T18:27:44;6.67;;;2.33;;
18399;SDS011;9326;49.468;11.008;2023-02-01T18:30:13;6.43;;;2.00;;
18399;SDS011;9326;49.468;11.008;2023-02-01T18:32:40;10.20;;;2.30;;
18399;SDS011;9326;49.468;11.008;2023-02-01T18:35:14;10.33;;;2.47;;
18399;SDS011;9326;49.468;11.008;2023-02-01T18:37:42;11.10;;;2.80;;
18399;SDS011;9326;49.468;11.008;2023-02-01T18:40:12;7.13;;;2.90;;
18399;SDS011;9326;49.468;11.008;2023-02-01T18:42:39;9.70;;;2.63;;
18399;SDS011;9326;49.468;11.008;2023-02-01T18:45:10;8.80;;;2.33;;
18399;SDS011;9326;49.468;11.008;2023-02-01T18:47:42;8.70;;;2.43;;
18399;SDS011;9326;49.468;11.008;2023-02-01T18:50:09;7.80;;;2.20;;
18399;SDS011;9326;49.468;11.008;2023-02-01T18:52:37;9.47;;;2.40;;
18399;SDS011;9326;49.468;11.008;2023-02-01T18:55:04;8.40;;;2.13;;
18399;SDS011;9326;49.468;11.008;2023-02-01T18:57:32;8.00;;;2.37;;
18399;SDS011;9326;49.468;11.008;2023-02-01T18:59:59;11.90;;;2.33;;
18399;SDS011;9326;49.468;11.008;2023-02-01T19:02:26;10.40;;;2.40;;
18399;SDS011;9326;49.468;11.008;2023-02-01T19:04:54;7.53;;;2.17;;
18399;SDS011;9326;49.468;11.008;2023-02-01T19:07:21;8.67;;;2.37;;
18399;SDS011;9326;49.468;11.008;2023-02-01T19:09:48;9.93;;;2.37;;
18399;SDS011;9326;49.468;11.008;2023-02-01T19:12:16;10.70;;;2.27;;
18399;SDS011;9326;49.468;11.008;2023-02-01T19:14:43;9.90;;;2.53;;
18399;SDS011;9326;49.468;11.008;2023-02-01T19:17:10;7.43;;;2.50;;
18399;SDS011;9326;49.468;11.008;2023-02-01T19:19:37;10.87;;;2.57;;
18399;SDS011;9326;49.468;11.008;2023-02-01T19:22:05;10.20;;;2.63;;
18399;SDS011;9326;49.468;11.008;2023-02-01T19:24:32;11.87;;;2.93;;
18399;SDS011;9326;49.468;11.008;2023-02-01T19:26:59;10.00;;;2.60;;
18399;SDS011;9326;49.468;11.008;2023-02-01T19:29:26;11.03;;;2.90;;
18399;SDS011;9326;49.468;11.008;2023-02-01T19:31:53;10.77;;;3.03;;
18399;SDS011;9326;49.468;11.008;2023-02-01T19:34:20;7.80;;;2.67;;
18399;SDS011;9326;49.468;11.008;2023-02-01T19:36:47;8.43;;;2.73;;
18399;SDS011;9326;49.468;11.008;2023-02-01T19:39:16;13.80;;;3.07;;
18399;SDS011;9326;49.468;11.008;2023-02-01T19:41:44;10.93;;;3.03;;
18399;SDS011;9326;49.468;11.008;2023-02-01T19:44:11;12.00;;;3.30;;
18399;SDS011;9326;49.468;11.008;2023-02-01T19:46:38;14.40;;;3.97;;
18399;SDS011;9326;49.468;11.008;2023-02-01T19:49:05;10.33;;;3.50;;
18399;SDS011;9326;49.468;11.008;2023-02-01T19:51:36;10.87;;;3.90;;
18399;SDS011;9326;49.468;11.008;2023-02-01T19:54:04;12.30;;;2.97;;
18399;SDS011;9326;49.468;11.008;2023-02-01T19:56:34;7.20;;;2.47;;
18399;SDS011;9326;49.468;11.008;2023-02-01T19:59:01;7.27;;;2.50;;
18399;SDS011;9326;49.468;11.008;2023-02-01T20:01:28;12.97;;;3.03;;
18399;SDS011;9326;49.468;11.008;2023-02-01T20:03:56;10.67;;;2.83;;
18399;SDS011;9326;49.468;11.008;2023-02-01T20:06:26;10.30;;;2.63;;
18399;SDS011;9326;49.468;11.008;2023-02-01T20:08:54;9.63;;;2.83;;
18399;SDS011;9326;49.468;11.008;2023-02-01T20:11:21;8.97;;;2.80;;
18399;SDS011;9326;49.468;11.008;2023-02-01T20:13:51;11.20;;;2.73;;
18399;SDS011;9326;49.468;11.008;2023-02-01T20:16:18;11.53;;;3.20;;
18399;SDS011;9326;49.468;11.008;2023-02-01T20:18:46;8.47;;;2.93;;
18399;SDS011;9326;49.468;11.008;2023-02-01T20:21:13;10.57;;;3.10;;